KBFF/BFF METAR and TAF weather

Enter ICAO airport designator
Station Type Date Time Source
KBFF METAR 2022/07/03 13:53 UTC NOAA

KBFF 031353Z AUTO 11011KT 10SM CLR 22/17 A2997 RMK AO2 SLP099 T02220167 $


Station Type Date Time Source
KBFF Decoded METAR 2022/07/03 13:53 UTC NOAA

SCOTTSBLUFF HEILIG FIELD, NE, United States (KBFF) 41-52N 103-36W 1203M
Jul 03, 2022 - 09:53 AM EDT / 2022.07.03 1353 UTC
Wind: from the ESE (110 degrees) at 13 MPH (11 KT):0
Visibility: 10 mile(s):0
Sky conditions: clear
Temperature: 72.0 F (22.2 C)
Dew Point: 62.1 F (16.7 C)
Relative Humidity: 71%
Pressure (altimeter): 29.97 in. Hg (1014 hPa)
ob: KBFF 031353Z AUTO 11011KT 10SM CLR 22/17 A2997 RMK AO2 SLP099 T02220167
cycle: 14

Station Type Date Time Source
KBFF TAF 2022/07/03 12:22 UTC NOAA

TAF KBFF 031120Z 0312/0412 12010KT P6SM FEW200
FM031500 15012KT P6SM SCT200
FM032100 16015G25KT P6SM VCTS SCT150CB
FM040000 16012KT P6SM SCT150

Example: see airport list